AR52 weather

CLOSED Hazen Heliport
Hazen, Arkansas, United States

Public forecast

Using degrees Fahrenheit for public forecast. Weather courtesy of forecast.io.

METAR (pilot weather report)

Closest report is Stuttgart Municipal Airport / Carl Humphrey Field, 10.9 nm (20.2 km) S. Retrieved 2019/09/17 02:56 UTC (18 minutes ago):

KSGT 170256Z AUTO 07003KT 10SM CLR 27/22 A3001 RMK AO2 SLP161 T02670222 53006

TAF (pilot weather forecast)

Closest forecast is Little Rock Air Force Base, 29.2 nm (54.0 km) WNW. Retrieved 2019/09/16 23:15 UTC (4 hours ago):

TAF TAF KLRF 162309Z 1623/1805 13006KT 9999 FEW100 QNH2995INS BECMG 1705/1706 VRB06KT 8000 BR FEW100 QNH2997INS BECMG 1710/1711 11006KT 9999 NSW FEW150 QNH2991INS TX35/1721Z TN21/1710Z